Time;durP1;ratioP1;P1;durP2;ratioP2;P2;SDS_P1;SDS_P2;PMS_P1;PMS_P2;Temp;Humidity;BMP_temperature;BMP_pressure;BME280_temperature;BME280_humidity;BME280_pressure;Samples;Min_cycle;Max_cycle;Signal;HPM_P1;HPM_P2
2021/10/12 00:00:48;;;;;;;;;8.25;7.00;;;;;11.04;65.75;101977.56;5055047;28;46303;-61
2021/10/12 00:03:14;;;;;;;;;8.25;6.00;;;;;11.00;65.30;101973.47;5055323;28;45328;-61
2021/10/12 00:05:39;;;;;;;;;7.00;7.00;;;;;10.96;65.68;101966.72;5055486;28;45338;-61
2021/10/12 00:08:04;;;;;;;;;9.00;7.25;;;;;10.95;65.91;101972.94;5055540;28;45355;-61
2021/10/12 00:10:30;;;;;;;;;8.50;7.00;;;;;10.93;66.07;101978.28;5054969;28;46326;-61
2021/10/12 00:12:55;;;;;;;;;7.75;6.00;;;;;10.89;66.08;101976.78;5055214;28;45270;-61
2021/10/12 00:15:21;;;;;;;;;6.50;6.00;;;;;10.86;66.29;101978.78;5055198;28;45923;-61
2021/10/12 00:17:46;;;;;;;;;9.00;7.50;;;;;10.81;66.50;101972.06;5055706;28;45547;-61
2021/10/12 00:20:11;;;;;;;;;7.50;6.50;;;;;10.79;66.47;101981.81;5054996;28;45481;-61
2021/10/12 00:22:37;;;;;;;;;10.50;8.00;;;;;10.78;66.53;101980.13;5055055;28;45510;-61
2021/10/12 00:25:03;;;;;;;;;7.75;7.00;;;;;10.74;66.38;101986.53;5037284;28;45479;-61
2021/10/12 00:27:28;;;;;;;;;8.00;7.50;;;;;10.72;66.75;101991.06;5037178;28;45564;-61
2021/10/12 00:29:53;;;;;;;;;9.50;6.25;;;;;10.68;66.45;101985.19;5054896;28;45398;-61
2021/10/12 00:32:19;;;;;;;;;6.50;6.50;;;;;10.66;66.93;101981.81;5053301;28;45546;-61
2021/10/12 00:34:44;;;;;;;;;8.00;7.00;;;;;10.65;66.79;101974.00;5036909;28;45692;-61
2021/10/12 00:37:12;;;;;;;;;8.00;6.00;;;;;10.62;67.26;101967.19;5053421;28;45498;-61
2021/10/12 00:39:39;;;;;;;;;6.75;6.00;;;;;10.62;67.24;101967.19;5053406;28;45583;-61
2021/10/12 00:42:04;;;;;;;;;9.25;7.00;;;;;10.63;67.02;101968.00;5058348;28;45338;-61
2021/10/12 00:44:29;;;;;;;;;9.00;7.00;;;;;10.62;66.95;101967.19;5058688;28;45402;-61
2021/10/12 00:46:55;;;;;;;;;8.00;6.75;;;;;10.64;66.95;101969.69;5040761;28;45434;-61
2021/10/12 00:49:20;;;;;;;;;9.25;5.50;;;;;10.63;67.20;101966.22;5058445;28;46079;-61
2021/10/12 00:51:46;;;;;;;;;6.50;6.50;;;;;10.64;67.14;101967.06;5058099;28;45364;-61
2021/10/12 00:54:11;;;;;;;;;7.50;6.50;;;;;10.63;67.09;101960.13;5058526;28;45553;-61
2021/10/12 00:56:37;;;;;;;;;6.75;6.00;;;;;10.64;66.98;101953.91;5058549;28;45599;-61
2021/10/12 00:59:03;;;;;;;;;11.50;7.00;;;;;10.63;66.78;101952.22;5040171;28;47083;-61
2021/10/12 01:01:29;;;;;;;;;9.25;6.00;;;;;10.63;67.06;101946.97;5039965;28;45451;-61
2021/10/12 01:03:55;;;;;;;;;10.00;7.00;;;;;10.61;66.68;101949.72;5057014;28;45495;-61
2021/10/12 01:06:20;;;;;;;;;7.00;6.00;;;;;10.62;66.90;101940.03;5058244;28;45661;-60
2021/10/12 01:08:46;;;;;;;;;7.25;7.00;;;;;10.61;66.77;101940.97;5058130;28;46311;-61
2021/10/12 01:11:11;;;;;;;;;7.00;7.00;;;;;10.60;66.84;101947.22;5057981;28;45671;-60
2021/10/12 01:13:37;;;;;;;;;7.00;7.00;;;;;10.57;66.75;101931.63;5056993;28;45546;-61
2021/10/12 01:16:03;;;;;;;;;8.75;7.00;;;;;10.55;66.85;101921.22;5058201;28;45466;-61
2021/10/12 01:18:28;;;;;;;;;7.00;5.50;;;;;10.53;67.08;101921.31;5057820;28;46407;-61
2021/10/12 01:20:54;;;;;;;;;7.00;7.00;;;;;10.52;66.70;101911.75;5058245;28;45337;-61
2021/10/12 01:23:19;;;;;;;;;5.75;5.75;;;;;10.52;66.64;101924.91;5059090;28;45449;-61
2021/10/12 01:25:45;;;;;;;;;6.00;5.00;;;;;10.52;66.68;101914.38;5059263;28;45351;-61
2021/10/12 01:28:10;;;;;;;;;6.00;5.75;;;;;10.49;67.18;101906.69;5059095;28;45340;-61
2021/10/12 01:30:37;;;;;;;;;7.50;6.00;;;;;10.47;66.86;101905.09;5059196;28;45343;-61
2021/10/12 01:33:02;;;;;;;;;7.00;6.00;;;;;10.46;66.83;101908.69;5041320;28;45402;-61
2021/10/12 01:35:28;;;;;;;;;8.75;6.25;;;;;10.45;66.99;101896.47;5059175;28;45239;-61
2021/10/12 01:37:53;;;;;;;;;9.75;5.75;;;;;10.45;67.00;101893.84;5058877;28;45362;-61
2021/10/12 01:40:19;;;;;;;;;8.00;6.50;;;;;10.45;67.17;101892.09;5058726;28;45301;-61
2021/10/12 01:42:44;;;;;;;;;6.00;5.25;;;;;10.44;67.26;101885.13;5040715;28;45419;-61
2021/10/12 01:45:10;;;;;;;;;5.75;4.75;;;;;10.45;67.09;101873.69;5059046;28;45183;-61
2021/10/12 01:47:35;;;;;;;;;8.75;5.50;;;;;10.45;67.10;101878.94;5058810;28;45349;-61
2021/10/12 01:50:01;;;;;;;;;8.00;5.25;;;;;10.44;66.87;101869.38;5058937;28;45305;-61
2021/10/12 01:52:27;;;;;;;;;7.50;5.50;;;;;10.43;67.23;101862.44;5057741;28;45484;-61
2021/10/12 01:54:52;;;;;;;;;6.00;5.25;;;;;10.44;67.13;101858.88;5058746;28;45419;-61
2021/10/12 01:57:18;;;;;;;;;9.50;6.25;;;;;10.46;66.97;101864.00;5040492;28;45528;-61
2021/10/12 01:59:44;;;;;;;;;7.75;6.00;;;;;10.48;66.44;101867.38;5058742;28;45469;-61
2021/10/12 02:02:10;;;;;;;;;5.75;5.25;;;;;10.47;66.85;101871.81;5058879;28;45406;-60
2021/10/12 02:04:35;;;;;;;;;6.75;6.00;;;;;10.45;67.01;101881.56;5058724;28;45432;-61
2021/10/12 02:07:01;;;;;;;;;8.00;6.25;;;;;10.42;66.98;101881.78;5058682;28;45439;-61
2021/10/12 02:09:26;;;;;;;;;6.50;6.00;;;;;10.40;67.37;101886.28;5058554;28;45320;-61
2021/10/12 02:11:52;;;;;;;;;9.25;7.00;;;;;10.35;67.13;101883.09;5058501;28;45394;-61
2021/10/12 02:14:17;;;;;;;;;7.50;7.50;;;;;10.36;67.23;101882.16;5058512;28;45280;-61
2021/10/12 02:16:42;;;;;;;;;10.75;8.50;;;;;10.32;67.60;101878.88;5058221;28;45787;-61
2021/10/12 02:19:08;;;;;;;;;6.75;6.50;;;;;10.33;67.44;101880.53;5058478;28;45320;-61
2021/10/12 02:21:33;;;;;;;;;8.75;7.75;;;;;10.32;67.63;101876.25;5058374;28;45443;-61
2021/10/12 02:23:59;;;;;;;;;8.00;6.00;;;;;10.32;67.75;101871.00;5040104;28;45376;-61
2021/10/12 02:26:24;;;;;;;;;9.00;8.75;;;;;10.32;67.61;101864.91;5058103;28;46140;-61
2021/10/12 02:28:50;;;;;;;;;11.50;9.00;;;;;10.30;67.63;101854.50;5058153;28;45223;-61
2021/10/12 02:31:15;;;;;;;;;16.50;12.75;;;;;10.30;67.91;101851.88;5058297;28;45249;-61
2021/10/12 02:33:40;;;;;;;;;14.75;11.00;;;;;10.29;67.68;101846.72;5056792;28;45448;-61
2021/10/12 02:36:06;;;;;;;;;13.00;11.75;;;;;10.29;67.78;101851.97;5058059;28;45285;-61
2021/10/12 02:38:31;;;;;;;;;13.75;12.75;;;;;10.29;67.71;101849.34;5058056;28;45221;-61
2021/10/12 02:40:57;;;;;;;;;17.00;12.50;;;;;10.29;67.95;101860.69;5058071;28;45213;-61
2021/10/12 02:43:22;;;;;;;;;15.75;15.50;;;;;10.28;67.86;101859.00;5057939;28;45390;-61
2021/10/12 02:45:48;;;;;;;;;17.75;13.50;;;;;10.28;67.72;101863.41;5057628;28;45407;-61
2021/10/12 02:48:13;;;;;;;;;16.75;14.00;;;;;10.24;67.95;101863.63;5057782;28;45328;-61
2021/10/12 02:50:39;;;;;;;;;21.75;17.75;;;;;10.22;67.87;101857.63;5058053;28;45315;-61
2021/10/12 02:53:04;;;;;;;;;11.00;11.00;;;;;10.20;67.91;101851.63;5057786;28;45753;-60
2021/10/12 02:55:29;;;;;;;;;21.00;15.75;;;;;10.20;67.95;101856.03;5057055;28;57651;-61
2021/10/12 02:57:55;;;;;;;;;19.00;16.00;;;;;10.18;67.95;101857.94;5056911;28;65124;-61
2021/10/12 03:00:20;;;;;;;;;19.50;17.00;;;;;10.13;68.17;101855.59;5056930;28;62541;-61
2021/10/12 03:02:46;;;;;;;;;17.75;16.75;;;;;10.10;67.99;101850.53;5057332;28;45583;-61
2021/10/12 03:05:11;;;;;;;;;20.50;17.75;;;;;10.09;68.25;101851.47;5039603;28;46611;-61
2021/10/12 03:07:37;;;;;;;;;23.25;20.00;;;;;10.07;68.28;101845.47;5038650;28;70020;-61
2021/10/12 03:10:03;;;;;;;;;28.50;21.50;;;;;10.05;68.07;101842.97;5057802;28;45313;-61
2021/10/12 03:12:28;;;;;;;;;30.50;22.75;;;;;10.06;68.34;101844.66;5057375;28;45458;-61
2021/10/12 03:14:53;;;;;;;;;31.50;28.75;;;;;10.06;68.27;101841.19;5056251;28;71253;-61
2021/10/12 03:17:19;;;;;;;;;30.50;27.00;;;;;10.04;68.44;101845.72;5057291;28;45367;-61
2021/10/12 03:19:44;;;;;;;;;32.50;28.25;;;;;10.05;67.98;101847.41;5056684;28;62918;-61
2021/10/12 03:22:11;;;;;;;;;34.50;29.25;;;;;10.00;68.25;101831.09;5056857;28;52187;-61
2021/10/12 03:24:37;;;;;;;;;36.75;29.25;;;;;9.99;68.59;101832.03;5057010;28;45555;-61
2021/10/12 03:27:03;;;;;;;;;34.25;26.25;;;;;9.98;68.49;101809.34;5057116;28;45470;-61
2021/10/12 03:29:29;;;;;;;;;33.25;30.25;;;;;10.01;68.35;101811.78;5057435;28;45351;-61
2021/10/12 03:31:54;;;;;;;;;36.25;30.50;;;;;10.02;68.21;101813.47;5057247;28;45606;-61
2021/10/12 03:34:20;;;;;;;;;32.75;26.75;;;;;10.03;68.05;101820.41;5056943;28;46105;-60
2021/10/12 03:36:45;;;;;;;;;31.00;24.00;;;;;10.05;68.02;101821.97;5056571;28;55942;-60
2021/10/12 03:39:10;;;;;;;;;24.00;21.00;;;;;10.04;68.01;101819.44;5056497;28;59113;-61
2021/10/12 03:41:36;;;;;;;;;26.25;18.50;;;;;10.03;67.86;101817.78;5039128;28;45528;-61
2021/10/12 03:44:01;;;;;;;;;21.75;18.75;;;;;10.03;67.66;101820.41;5056107;28;70341;-61
2021/10/12 03:46:26;;;;;;;;;18.50;18.50;;;;;10.03;67.93;101809.88;5039057;28;45405;-61
2021/10/12 03:48:52;;;;;;;;;23.50;19.50;;;;;10.01;67.89;101815.22;5056507;28;53650;-61
2021/10/12 03:51:17;;;;;;;;;24.50;16.75;;;;;10.01;68.01;101817.03;5055926;28;66146;-61
2021/10/12 03:53:43;;;;;;;;;20.25;16.75;;;;;10.00;67.58;101823.22;5056152;28;65647;-61
2021/10/12 03:56:08;;;;;;;;;18.50;17.25;;;;;9.98;67.80;101819.84;5055954;28;61514;-61
2021/10/12 03:58:33;;;;;;;;;15.50;13.00;;;;;9.98;67.92;101820.69;5056845;28;47809;-61
2021/10/12 04:00:59;;;;;;;;;19.00;15.50;;;;;9.98;67.84;101819.84;5056579;28;45491;-61
2021/10/12 04:03:24;;;;;;;;;18.00;14.75;;;;;9.97;67.74;101812.91;5055768;28;65985;-61
2021/10/12 04:05:49;;;;;;;;;13.50;13.25;;;;;9.97;68.06;101799.78;5056188;28;61476;-61
2021/10/12 04:08:15;;;;;;;;;12.50;10.50;;;;;9.95;67.88;101803.34;5056275;28;59009;-61
2021/10/12 04:10:40;;;;;;;;;19.75;13.00;;;;;9.95;67.68;101805.13;5055988;28;58632;-61
2021/10/12 04:13:06;;;;;;;;;15.75;13.50;;;;;9.97;67.88;101797.16;5056427;28;45581;-61
2021/10/12 04:15:32;;;;;;;;;20.75;18.25;;;;;9.98;67.51;101806.72;5054979;28;45328;-61
2021/10/12 04:17:57;;;;;;;;;26.50;20.75;;;;;9.97;67.74;101812.91;5056630;28;45407;-61
2021/10/12 04:20:27;;;;;;;;;28.25;22.25;;;;;9.96;67.67;101817.31;5038440;28;45514;-61
2021/10/12 04:22:53;;;;;;;;;15.25;12.50;;;;;9.97;67.63;101819.00;5056050;28;45276;-61
2021/10/12 04:25:19;;;;;;;;;13.25;10.00;;;;;9.97;67.58;101819.00;5038499;28;45268;-61
2021/10/12 04:27:44;;;;;;;;;13.50;9.75;;;;;9.97;67.75;101802.41;5056491;28;45236;-60
2021/10/12 04:30:10;;;;;;;;;9.50;8.75;;;;;9.97;67.82;101816.38;5056385;28;45247;-61
2021/10/12 04:32:35;;;;;;;;;13.75;9.00;;;;;9.97;67.73;101815.53;5056285;28;46643;-61
2021/10/12 04:35:01;;;;;;;;;10.50;8.75;;;;;9.97;67.44;101818.16;5055223;28;70403;-61
2021/10/12 04:37:26;;;;;;;;;9.50;8.25;;;;;9.96;67.52;101814.69;5055669;28;59487;-61
2021/10/12 04:39:52;;;;;;;;;10.00;9.00;;;;;9.95;67.52;101811.22;5056468;28;45542;-61
2021/10/12 04:42:17;;;;;;;;;11.25;8.75;;;;;9.94;67.47;101811.31;5056040;28;49165;-60
2021/10/12 04:44:42;;;;;;;;;14.25;11.00;;;;;9.94;67.40;101804.31;5056146;28;45594;-61
2021/10/12 04:47:11;;;;;;;;;15.00;9.75;;;;;9.94;67.70;101814.81;5056102;28;48576;-61
2021/10/12 04:49:36;;;;;;;;;10.00;10.00;;;;;9.94;67.84;101809.56;5056379;28;45545;-61
2021/10/12 04:52:02;;;;;;;;;15.25;13.00;;;;;9.93;67.41;101818.38;5055487;28;61831;-61
2021/10/12 04:54:27;;;;;;;;;13.00;10.00;;;;;9.89;67.30;101816.03;5038010;28;45435;-61
2021/10/12 04:56:52;;;;;;;;;12.00;10.25;;;;;9.87;67.77;101810.88;5055451;28;59183;-61
2021/10/12 04:59:18;;;;;;;;;14.75;13.50;;;;;9.85;67.61;101804.91;5056196;28;45202;-61
2021/10/12 05:01:43;;;;;;;;;13.00;12.00;;;;;9.84;67.54;101807.59;5055010;28;72214;-61
2021/10/12 05:04:09;;;;;;;;;17.75;13.00;;;;;9.81;67.32;101808.66;5054944;28;65938;-61
2021/10/12 05:06:34;;;;;;;;;21.75;16.00;;;;;9.79;67.60;101810.53;5055146;28;60141;-61
2021/10/12 05:08:59;;;;;;;;;14.50;13.50;;;;;9.78;67.51;101814.09;5055357;28;59898;-61
2021/10/12 05:11:25;;;;;;;;;11.25;10.50;;;;;9.77;67.37;101808.03;5036789;28;67813;-61
2021/10/12 05:13:51;;;;;;;;;13.00;11.25;;;;;9.76;67.81;101806.34;5055781;28;45257;-61
2021/10/12 05:16:19;;;;;;;;;11.00;11.00;;;;;9.77;67.50;101804.53;5055699;28;45295;-61
2021/10/12 05:18:46;;;;;;;;;14.50;10.00;;;;;9.76;67.41;101805.47;5038046;28;45540;-61
2021/10/12 05:21:12;;;;;;;;;14.00;9.75;;;;;9.76;67.57;101805.47;5037841;28;45496;-61
2021/10/12 05:23:37;;;;;;;;;18.00;13.50;;;;;9.75;67.62;101799.41;5054371;28;70465;-61
2021/10/12 05:26:02;;;;;;;;;23.75;20.00;;;;;9.76;67.86;101801.09;5056340;28;45993;-61
2021/10/12 05:28:28;;;;;;;;;18.00;12.75;;;;;9.77;68.10;101801.91;5040445;28;60509;-61
2021/10/12 05:30:53;;;;;;;;;10.50;9.00;;;;;9.76;68.45;101797.63;5040103;28;71942;-61
2021/10/12 05:33:19;;;;;;;;;12.50;8.50;;;;;9.79;68.40;101794.78;5040514;28;55333;-61
2021/10/12 05:35:45;;;;;;;;;13.75;11.50;;;;;9.81;68.60;101798.16;5058935;28;45253;-61
2021/10/12 05:38:11;;;;;;;;;27.00;18.25;;;;;9.84;68.77;101797.97;5040908;28;45324;-61
2021/10/12 05:40:36;;;;;;;;;22.75;19.25;;;;;9.87;68.45;101795.13;5058455;28;46538;-61
2021/10/12 05:43:01;;;;;;;;;19.75;17.00;;;;;9.88;68.69;101790.72;5057912;28;71253;-61
2021/10/12 05:45:27;;;;;;;;;15.25;13.00;;;;;9.90;68.80;101794.09;5040883;28;45403;-61
2021/10/12 05:47:52;;;;;;;;;14.75;11.50;;;;;9.92;68.54;101795.69;5058981;28;45349;-61
2021/10/12 05:50:18;;;;;;;;;19.00;14.50;;;;;9.94;68.57;101800.81;5040658;28;45356;-61
2021/10/12 05:52:52;;;;;;;;;12.25;10.00;;;;;9.94;68.63;101793.78;5058517;28;45350;-61
2021/10/12 05:55:25;;;;;;;;;11.00;7.00;;;;;9.96;68.52;101793.69;5041907;28;45312;-61
2021/10/12 05:58:12;;;;;;;;;18.25;14.00;;;;;9.97;68.30;101798.00;5058719;28;45351;-61
2021/10/12 06:00:37;;;;;;;;;18.25;13.25;;;;;9.96;68.41;101793.69;5058400;28;46166;-61
2021/10/12 06:03:03;;;;;;;;;18.00;15.25;;;;;9.96;68.28;101796.31;5057721;28;61392;-61
2021/10/12 06:05:28;;;;;;;;;18.25;14.50;;;;;9.95;68.56;101790.22;5057787;28;61808;-61
2021/10/12 06:07:54;;;;;;;;;16.50;13.00;;;;;9.94;68.48;101793.78;5058064;28;53499;-61
2021/10/12 06:10:19;;;;;;;;;15.50;14.75;;;;;9.95;67.92;101795.47;5058388;28;46042;-61
2021/10/12 06:12:45;;;;;;;;;16.25;13.75;;;;;9.93;68.29;101796.50;5058281;28;45438;-61
2021/10/12 06:15:10;;;;;;;;;18.50;12.50;;;;;9.89;67.89;101798.50;5057424;28;64959;-61
2021/10/12 06:17:36;;;;;;;;;16.50;13.50;;;;;9.87;68.10;101791.66;5057337;28;69333;-61
2021/10/12 06:20:01;;;;;;;;;15.75;12.25;;;;;9.86;68.13;101801.31;5056022;28;70629;-61
2021/10/12 06:22:26;;;;;;;;;14.50;13.75;;;;;9.84;67.85;101795.34;5057830;28;50323;-61
2021/10/12 06:24:52;;;;;;;;;13.50;13.50;;;;;9.82;68.18;101794.59;5039927;28;45583;-61
2021/10/12 06:27:19;;;;;;;;;14.75;13.25;;;;;9.80;68.13;101791.22;5057901;28;52392;-61
2021/10/12 06:29:45;;;;;;;;;17.00;15.00;;;;;9.82;68.09;101799.84;5057983;28;46257;-61
2021/10/12 06:32:10;;;;;;;;;11.25;11.25;;;;;9.80;68.26;101792.06;5057300;28;64115;-61
2021/10/12 06:34:36;;;;;;;;;14.00;11.75;;;;;9.80;67.98;101791.22;5039111;28;64039;-61
2021/10/12 06:37:01;;;;;;;;;13.75;13.25;;;;;9.80;67.98;101791.22;5057266;28;55342;-61
2021/10/12 06:39:26;;;;;;;;;18.75;13.75;;;;;9.79;68.32;101789.53;5056483;28;66014;-61
2021/10/12 06:41:52;;;;;;;;;16.75;14.00;;;;;9.79;68.12;101790.41;5057041;28;65229;-61
2021/10/12 06:44:17;;;;;;;;;14.25;13.00;;;;;9.78;68.33;101800.97;5057218;28;56857;-61
2021/10/12 06:46:42;;;;;;;;;12.00;12.00;;;;;9.79;68.50;101800.03;5058018;28;45546;-61
2021/10/12 06:49:08;;;;;;;;;13.50;11.00;;;;;9.82;68.63;101797.22;5057735;28;45475;-61
2021/10/12 06:51:33;;;;;;;;;10.50;9.50;;;;;9.84;68.77;101797.97;5039033;28;65161;-61
2021/10/12 06:53:58;;;;;;;;;12.25;11.50;;;;;9.89;68.54;101802.91;5056810;28;66648;-61
2021/10/12 06:56:24;;;;;;;;;17.75;13.25;;;;;9.89;68.63;101800.28;5056633;28;70766;-61
2021/10/12 06:58:50;;;;;;;;;13.25;11.25;;;;;9.92;68.81;101802.69;5039466;28;46466;-61
2021/10/12 07:01:15;;;;;;;;;14.00;10.75;;;;;9.95;68.65;101802.50;5057300;28;45328;-61
2021/10/12 07:03:41;;;;;;;;;18.25;16.75;;;;;9.98;68.74;101804.94;5056640;28;60945;-61
2021/10/12 07:06:06;;;;;;;;;17.25;16.50;;;;;10.02;69.08;101813.47;5057648;28;45314;-61
2021/10/12 07:08:31;;;;;;;;;13.50;11.50;;;;;10.06;68.88;101807.06;5038828;28;64105;-61
2021/10/12 07:10:57;;;;;;;;;19.50;15.75;;;;;10.09;68.85;101798.94;5039422;28;45252;-61
2021/10/12 07:13:29;;;;;;;;;15.00;15.00;;;;;10.15;69.13;101800.34;5056811;28;64848;-61
2021/10/12 07:15:56;;;;;;;;;15.00;13.75;;;;;10.19;69.20;101794.78;5057388;28;45390;-61
2021/10/12 07:18:22;;;;;;;;;14.25;12.75;;;;;10.25;69.29;101790.91;5039170;28;45455;-61
2021/10/12 07:20:47;;;;;;;;;15.75;14.00;;;;;10.32;68.89;101783.47;5039152;28;45443;-61
2021/10/12 07:23:12;;;;;;;;;15.50;14.75;;;;;10.39;69.19;101787.38;5055787;28;69054;-61
2021/10/12 07:25:38;;;;;;;;;20.25;16.00;;;;;10.46;69.03;101783.41;5039128;28;45562;-61
2021/10/12 07:28:03;;;;;;;;;22.00;17.00;;;;;10.53;68.76;101784.66;5055643;28;73803;-61
2021/10/12 07:30:29;;;;;;;;;19.50;16.00;;;;;10.58;68.75;101781.72;5056456;28;45319;-61
2021/10/12 07:32:54;;;;;;;;;16.50;15.50;;;;;10.66;68.54;101774.16;5056049;28;45485;-61
2021/10/12 07:35:19;;;;;;;;;17.50;15.75;;;;;10.74;68.81;101773.59;5055767;28;45667;-61
2021/10/12 07:37:45;;;;;;;;;18.00;13.75;;;;;10.80;68.62;101775.81;5055271;28;45442;-61
2021/10/12 07:40:11;;;;;;;;;18.75;14.00;;;;;10.89;68.44;101776.13;5036909;28;45331;-61
2021/10/12 07:42:36;;;;;;;;;18.00;17.00;;;;;10.94;68.25;101772.22;5037607;28;46025;-61
2021/10/12 07:45:02;;;;;;;;;18.00;17.25;;;;;11.01;68.36;101772.63;5054375;28;64794;-59
2021/10/12 07:47:27;;;;;;;;;16.75;15.50;;;;;11.08;68.05;101775.66;5055666;28;45471;-61
2021/10/12 07:49:54;;;;;;;;;21.50;15.25;;;;;11.15;67.53;101779.53;5052837;28;72065;-61
2021/10/12 07:52:19;;;;;;;;;18.00;14.50;;;;;11.24;67.28;101778.88;5036680;28;45551;-61
2021/10/12 07:54:46;;;;;;;;;14.75;14.25;;;;;11.30;67.33;101780.22;5055304;28;45614;-61
2021/10/12 07:57:15;;;;;;;;;16.25;12.00;;;;;11.40;67.35;101769.88;5055257;28;47121;-61
2021/10/12 07:59:41;;;;;;;;;17.25;14.75;;;;;11.52;67.36;101770.78;5054898;28;45316;-61
2021/10/12 08:02:07;;;;;;;;;14.00;12.25;;;;;11.66;67.06;101767.13;5036959;28;45258;-61
2021/10/12 08:04:32;;;;;;;;;14.50;12.50;;;;;11.81;66.89;101760.75;5053902;28;45427;-61
2021/10/12 08:06:58;;;;;;;;;19.25;13.00;;;;;12.01;66.94;101764.56;5037232;28;46523;-59
2021/10/12 08:09:23;;;;;;;;;15.25;12.50;;;;;12.23;66.21;101765.56;5051056;28;63088;-59
2021/10/12 08:11:49;;;;;;;;;19.25;14.00;;;;;12.44;66.03;101757.81;5051732;28;57723;-59
2021/10/12 08:14:18;;;;;;;;;18.50;16.00;;;;;12.66;65.32;101753.50;5035519;28;45353;-60
2021/10/12 08:16:44;;;;;;;;;14.75;13.75;;;;;12.90;64.58;101748.09;5054047;28;45450;-60
2021/10/12 08:19:10;;;;;;;;;16.50;13.25;;;;;13.14;64.52;101755.03;5053642;28;45958;-59
2021/10/12 08:21:35;;;;;;;;;15.00;15.00;;;;;13.38;63.98;101750.53;5035420;28;54113;-60
2021/10/12 08:24:02;;;;;;;;;15.25;13.50;;;;;13.63;62.99;101758.16;5035743;28;45462;-60
2021/10/12 08:26:27;;;;;;;;;21.25;17.50;;;;;13.88;62.41;101763.19;5018335;28;45728;-59
2021/10/12 08:28:53;;;;;;;;;17.50;16.25;;;;;14.10;62.33;101757.81;5053304;28;45498;-59
2021/10/12 08:31:18;;;;;;;;;17.00;15.00;;;;;14.34;61.98;101754.03;5053457;28;45772;-60
2021/10/12 08:33:44;;;;;;;;;18.25;13.75;;;;;14.58;61.10;101758.19;5035822;28;45492;-60
2021/10/12 08:36:10;;;;;;;;;18.50;15.00;;;;;14.81;60.78;101755.41;5053804;28;46462;-60
2021/10/12 08:38:40;;;;;;;;;17.25;13.75;;;;;15.01;59.88;101751.00;5050845;28;45486;-60
2021/10/12 08:41:05;;;;;;;;;19.00;14.50;;;;;15.21;59.63;101751.88;5046840;28;45459;-60
2021/10/12 08:43:32;;;;;;;;;18.75;16.00;;;;;15.42;59.04;101742.97;5046725;28;45605;-60
2021/10/12 08:45:58;;;;;;;;;14.50;13.50;;;;;15.62;57.95;101727.09;5044505;28;46458;-60
2021/10/12 08:48:23;;;;;;;;;16.25;13.50;;;;;15.80;57.87;101733.38;5045514;28;46034;-60
2021/10/12 08:50:49;;;;;;;;;16.25;12.75;;;;;16.01;57.14;101732.38;5010478;28;62317;-60
2021/10/12 08:53:15;;;;;;;;;14.75;12.50;;;;;16.20;56.60;101725.38;5046081;28;66958;-60
2021/10/12 08:55:40;;;;;;;;;19.50;15.50;;;;;16.38;55.89;101728.09;5045772;28;65582;-60
2021/10/12 08:58:05;;;;;;;;;18.00;14.25;;;;;16.53;56.14;101723.13;5029343;28;45539;-60
2021/10/12 09:00:31;;;;;;;;;17.75;17.00;;;;;16.66;55.57;101718.34;5027835;28;45633;-60
2021/10/12 09:03:16;;;;;;;;;31.00;22.50;;;;;16.84;55.48;101725.53;5049371;28;65066;-61
2021/10/12 09:05:58;;;;;;;;;21.00;16.25;;;;;16.97;54.52;101715.41;5032986;28;46146;-60
2021/10/12 09:08:24;;;;;;;;;20.75;16.25;;;;;17.09;54.17;101716.03;5030562;28;46035;-60
2021/10/12 09:10:50;;;;;;;;;18.00;13.00;;;;;17.20;53.99;101715.81;5047349;28;45794;-61
2021/10/12 09:13:15;;;;;;;;;20.00;14.50;;;;;17.33;53.42;101715.44;5049476;28;45552;-60
2021/10/12 09:15:40;;;;;;;;;14.75;11.75;;;;;17.42;52.59;101711.03;5048055;28;71030;-60
2021/10/12 09:18:06;;;;;;;;;15.75;13.25;;;;;17.50;52.40;101705.78;5029055;28;64166;-60
2021/10/12 09:20:32;;;;;;;;;14.00;13.00;;;;;17.59;52.18;101703.19;5030916;28;45601;-60
2021/10/12 09:23:13;;;;;;;;;12.00;12.00;;;;;17.71;52.14;101704.63;5048592;28;45853;-61
2021/10/12 09:25:43;;;;;;;;;16.50;13.50;;;;;17.84;51.66;101695.41;5048306;28;45683;-61
2021/10/12 09:28:25;;;;;;;;;20.50;17.25;;;;;17.96;52.18;101699.47;5048935;28;46052;-61
2021/10/12 09:30:53;;;;;;;;;16.50;11.50;;;;;18.11;51.24;101691.78;5030707;28;45597;-61
2021/10/12 09:33:18;;;;;;;;;10.25;9.50;;;;;18.24;50.87;101692.19;5048373;28;45415;-60
2021/10/12 09:35:43;;;;;;;;;11.50;10.25;;;;;18.33;50.70;101698.38;5048649;28;63849;-61
2021/10/12 09:38:10;;;;;;;;;15.75;12.75;;;;;18.45;50.47;101696.28;5029987;28;47847;-61
2021/10/12 09:40:37;;;;;;;;;16.50;12.50;;;;;18.59;50.29;101696.66;5029424;28;45836;-61
2021/10/12 09:43:03;;;;;;;;;12.75;11.50;;;;;18.68;49.69;101693.88;5049174;28;45614;-60
2021/10/12 09:45:35;;;;;;;;;15.00;11.25;;;;;18.75;49.80;101690.56;5048520;28;47255;-61
2021/10/12 09:48:00;;;;;;;;;14.75;14.00;;;;;18.88;49.00;101684.78;5064865;27;45567;-61
2021/10/12 09:50:32;;;;;;;;;18.00;11.25;;;;;19.00;49.29;101695.97;5047910;28;58457;-61
2021/10/12 09:52:58;;;;;;;;;14.25;11.75;;;;;19.10;48.99;101688.66;5049958;28;45532;-61
2021/10/12 09:55:34;;;;;;;;;14.75;12.50;;;;;19.17;48.74;101691.50;5048746;28;70888;-60
2021/10/12 09:58:01;;;;;;;;;16.75;13.50;;;;;19.18;48.84;101682.50;5029789;28;45558;-61
2021/10/12 10:00:26;;;;;;;;;15.00;12.75;;;;;19.19;48.86;101682.34;5029044;28;45599;-61
2021/10/12 10:02:52;;;;;;;;;17.50;13.75;;;;;19.20;48.80;101684.03;5029373;28;59597;-60
2021/10/12 10:05:17;;;;;;;;;15.75;12.75;;;;;19.21;48.58;101679.50;5029968;28;70484;-61
2021/10/12 10:07:44;;;;;;;;;14.25;12.75;;;;;19.18;48.69;101679.84;5028881;28;66948;-61
2021/10/12 10:10:09;;;;;;;;;15.00;11.00;;;;;19.17;48.25;101681.69;5028236;28;45487;-61
2021/10/12 10:12:35;;;;;;;;;13.00;9.00;;;;;19.15;47.93;101680.16;5046154;28;45579;-61
2021/10/12 10:15:00;;;;;;;;;14.25;11.50;;;;;19.16;48.18;101672.03;5040867;28;46181;-61
2021/10/12 10:17:26;;;;;;;;;12.50;10.00;;;;;19.19;48.58;101662.84;5028869;28;46319;-60
2021/10/12 10:19:51;;;;;;;;;11.00;8.00;;;;;19.23;47.88;101653.53;5027603;28;51548;-61
2021/10/12 10:22:40;;;;;;;;;9.25;7.00;;;;;19.26;48.44;101663.88;5029031;28;60664;-61
2021/10/12 10:25:25;;;;;;;;;12.50;8.00;;;;;19.34;48.35;101655.88;5063472;28;47845;-61
2021/10/12 10:27:51;;;;;;;;;12.50;9.00;;;;;19.39;47.96;101650.88;5047954;28;45485;-61
2021/10/12 10:30:20;;;;;;;;;7.00;7.00;;;;;19.38;47.59;101657.22;5028824;28;66524;-60
2021/10/12 10:32:59;;;;;;;;;7.00;6.00;;;;;19.28;47.65;101664.53;5048108;28;45614;-61
2021/10/12 10:35:45;;;;;;;;;8.75;5.00;;;;;19.09;47.96;101657.69;5046945;28;46682;-60
2021/10/12 10:38:20;;;;;;;;;7.25;5.50;;;;;18.87;48.43;101651.97;5060546;27;45983;-61
2021/10/12 10:40:49;;;;;;;;;5.25;5.00;;;;;18.69;48.81;101655.59;5046445;28;45578;-60
2021/10/12 10:43:14;;;;;;;;;5.00;3.75;;;;;18.53;48.89;101653.75;5047120;28;45623;-60
2021/10/12 10:45:47;;;;;;;;;9.50;5.00;;;;;18.39;48.98;101654.34;5046683;28;66505;-60
2021/10/12 10:48:14;;;;;;;;;5.25;5.00;;;;;18.26;49.53;101644.16;5046829;28;46009;-61
2021/10/12 10:50:40;;;;;;;;;8.00;4.00;;;;;18.13;49.69;101641.09;5045650;28;45477;-60
2021/10/12 10:53:09;;;;;;;;;9.25;6.25;;;;;18.04;49.81;101640.19;5028755;28;45499;-60
2021/10/12 10:55:39;;;;;;;;;5.25;5.00;;;;;17.97;49.88;101639.97;5028645;28;45774;-60
2021/10/12 10:58:20;;;;;;;;;8.00;7.00;;;;;17.86;49.97;101643.75;5048092;28;46060;-61
2021/10/12 11:00:53;;;;;;;;;7.00;4.50;;;;;17.76;50.08;101638.53;5047221;28;45431;-60
2021/10/12 11:03:30;;;;;;;;;9.75;6.00;;;;;17.69;50.46;101641.97;5048143;28;45704;-60
2021/10/12 11:06:00;;;;;;;;;8.75;5.50;;;;;17.61;50.46;101638.25;5047183;28;47522;-60
2021/10/12 11:08:29;;;;;;;;;5.00;3.75;;;;;17.55;50.48;101635.41;5062091;28;46102;-61
2021/10/12 11:11:06;;;;;;;;;7.50;7.00;;;;;17.48;50.71;101643.19;5047924;28;45502;-61
2021/10/12 11:13:39;;;;;;;;;4.00;3.25;;;;;17.40;50.62;101637.78;5030808;28;45455;-61